Etusivu
METAR-TAF:

METAR-TAF

Lentoasemat :

Brønnøysund, Norja

Leveyspiiri: 65-28N, Pituuspiiri: 012-13E, korkeus merenpinnasta: 0 m

Tämänhetkinen sää

Tämä raportti tehtiin 12 minuuttia sitten, kello 04.50 UTC
Tuuli 2 kn eri suunnista
Lämpötila 7°C
Kosteus 76%
Ilmanpaine 1016 hPa
Näkyvyys 10 km tai enemmän
Hajonneita pilviä 3000 ft:n korkeudessa

METAR: ENBN 230450Z VRB02KT 9999 BKN030 07/03 Q1016

Aika: 07:02 (05:02 UTC)

Sääennuste

Tämä raportti tehtiin 3 tuntia ja 2 minuuttia sitten, kello 02.00 UTC
Ennuste voimassa 23. päivästä klo 05 UTC - 23. päivään klo 12 UTC
Tuuli 5 kn pohjoisesta
Näkyvyys 10 km tai enemmän
Muutamia pilviä 1500 ft:n korkeudessa
Hajonneita pilviä 3000 ft:n korkeudessa

TAF: ENBN 230200Z 2305/2312 35005KT 9999 FEW015 BKN030

Säähavainnot ja -ennusteet yli 4000 lentoasemalta (METAR- ja TAF-raportit).

Käytössä olevat sääasemat on merkitty karttaan keltaisilla ja punaisilla pisteillä.

Aseta hiiri pisteen päälle nähdäksesi sääaseman nimen.

Klikkaa sitten nähdäksesi säähavainnot ja -ennusteet.

Kartan vaihtaminen: klikkaa mustalla rastilla varustettuja vihreitä pisteitä, niin voit zoomata sisään; viivalla varustettua vihreää pistettä, niin voit zoomata ulos tai vihreitä nuolia, niin pääset viereisille kartoille.


METAR-TAF: